Time;durP1;ratioP1;P1;durP2;ratioP2;P2;SDS_P1;SDS_P2;PMS_P1;PMS_P2;Temp;Humidity;BMP_temperature;BMP_pressure;BME280_temperature;BME280_humidity;BME280_pressure;Samples;Min_cycle;Max_cycle;Signal;HPM_P1;HPM_P2
2023/04/16 00:00:39;;;;;;;;;;;;;;;20.26;54.96;96439.77;616101;229;65238;-59
2023/04/16 00:03:07;;;;;;;;;;;;;;;20.25;55.19;96438.98;612736;229;67054;-59
2023/04/16 00:05:34;;;;;;;;;;;;;;;20.26;55.09;96448.56;616492;230;62859;-59
2023/04/16 00:08:02;;;;;;;;;;;;;;;20.25;55.37;96448.86;615261;230;64840;-59
2023/04/16 00:10:29;;;;;;;;;;;;;;;20.26;55.66;96450.45;613916;230;67083;-59
2023/04/16 00:12:57;;;;;;;;;;;;;;;20.25;54.77;96446.20;612985;230;65124;-59
2023/04/16 00:15:24;;;;;;;;;;;;;;;20.25;55.38;96443.53;615902;230;67232;-59
2023/04/16 00:17:52;;;;;;;;;;;;;;;20.25;54.29;96440.86;612686;230;64830;-59
2023/04/16 00:20:20;;;;;;;;;;;;;;;20.24;54.26;96436.58;614223;230;63141;-59
2023/04/16 00:22:47;;;;;;;;;;;;;;;20.25;55.21;96443.53;614875;230;67341;-59
2023/04/16 00:25:15;;;;;;;;;;;;;;;20.25;55.45;96443.53;616831;230;64931;-59
2023/04/16 00:27:42;;;;;;;;;;;;;;;20.25;55.84;96440.86;609219;229;63063;-59
2023/04/16 00:30:10;;;;;;;;;;;;;;;20.24;54.02;96436.58;616252;230;67475;-59
2023/04/16 00:32:38;;;;;;;;;;;;;;;20.24;55.17;96439.25;616227;230;67037;-59
2023/04/16 00:35:06;;;;;;;;;;;;;;;20.22;54.85;96439.55;612764;230;62970;-59
2023/04/16 00:37:34;;;;;;;;;;;;;;;20.23;55.17;96440.33;611600;230;67275;-59
2023/04/16 00:40:01;;;;;;;;;;;;;;;20.23;55.41;96441.13;613895;230;66756;-58
2023/04/16 00:42:29;;;;;;;;;;;;;;;20.23;55.08;96438.45;613928;230;65001;-59
2023/04/16 00:44:56;;;;;;;;;;;;;;;20.23;55.85;96437.67;614769;230;66998;-59
2023/04/16 00:47:24;;;;;;;;;;;;;;;20.22;56.43;96439.55;612314;230;66929;-58
2023/04/16 00:49:52;;;;;;;;;;;;;;;20.23;55.63;96437.67;616219;230;62995;-59
2023/04/16 00:52:19;;;;;;;;;;;;;;;20.22;54.56;96428.08;614227;230;65039;-59
2023/04/16 00:54:47;;;;;;;;;;;;;;;20.21;55.89;96437.94;614489;230;65025;-59
2023/04/16 00:57:14;;;;;;;;;;;;;;;20.22;55.28;96428.08;616733;230;63063;-59
2023/04/16 00:59:42;;;;;;;;;;;;;;;20.21;55.21;96421.92;612385;230;67065;-58
2023/04/16 01:02:09;;;;;;;;;;;;;;;20.22;55.41;96422.75;614541;230;67073;-59
2023/04/16 01:04:37;;;;;;;;;;;;;;;20.22;53.25;96420.08;612233;230;64940;-59
2023/04/16 01:07:04;;;;;;;;;;;;;;;20.22;56.02;96422.75;615344;230;67076;-59
2023/04/16 01:09:32;;;;;;;;;;;;;;;20.21;54.55;96419.26;611877;230;67065;-58
2023/04/16 01:11:59;;;;;;;;;;;;;;;20.22;54.93;96417.41;611585;230;65026;-59
2023/04/16 01:14:26;;;;;;;;;;;;;;;20.21;54.80;96416.59;611610;230;67478;-59
2023/04/16 01:16:54;;;;;;;;;;;;;;;20.21;55.23;96421.13;611564;230;66914;-59
2023/04/16 01:19:21;;;;;;;;;;;;;;;20.20;54.91;96414.22;611545;230;63531;-58
2023/04/16 01:21:50;;;;;;;;;;;;;;;20.20;56.24;96408.88;615245;229;44125;-59
2023/04/16 01:24:18;;;;;;;;;;;;;;;20.19;56.16;96408.09;611577;230;65207;-59
2023/04/16 01:26:45;;;;;;;;;;;;;;;20.19;55.75;96402.75;611574;230;65636;-59
2023/04/16 01:29:13;;;;;;;;;;;;;;;20.18;55.74;96407.27;611573;230;64742;-59
2023/04/16 01:31:40;;;;;;;;;;;;;;;20.18;55.61;96404.60;611429;230;67607;-59
2023/04/16 01:34:19;;;;;;;;;;;;;;;20.18;55.73;96409.94;611249;230;47463;-59
2023/04/16 01:36:47;;;;;;;;;;;;;;;20.20;56.74;96414.22;611530;230;67191;-59
2023/04/16 01:39:15;;;;;;;;;;;;;;;20.18;54.75;96422.48;615850;227;67018;-59
2023/04/16 01:41:42;;;;;;;;;;;;;;;20.17;56.43;96411.03;608779;229;62737;-59
2023/04/16 01:44:10;;;;;;;;;;;;;;;20.17;56.32;96404.90;614017;230;64940;-59
2023/04/16 01:46:38;;;;;;;;;;;;;;;20.17;56.27;96397.69;613611;230;64942;-59
2023/04/16 01:49:06;;;;;;;;;;;;;;;20.17;56.57;96400.36;611579;231;62741;-59
2023/04/16 01:51:33;;;;;;;;;;;;;;;20.17;56.35;96404.90;612597;230;67325;-58
2023/04/16 01:54:01;;;;;;;;;;;;;;;20.16;55.90;96404.11;611653;230;67837;-59
2023/04/16 01:56:28;;;;;;;;;;;;;;;20.17;56.02;96402.23;611572;230;65222;-59
2023/04/16 01:58:56;;;;;;;;;;;;;;;20.15;54.80;96397.16;614676;230;67304;-59
2023/04/16 02:01:24;;;;;;;;;;;;;;;20.17;56.24;96404.90;616500;230;65273;-58
2023/04/16 02:03:52;;;;;;;;;;;;;;;20.16;55.72;96400.62;611580;230;63057;-59
2023/04/16 02:06:20;;;;;;;;;;;;;;;20.15;55.59;96397.16;613608;230;65152;-59
2023/04/16 02:08:47;;;;;;;;;;;;;;;20.16;56.63;96397.95;613391;230;66883;-59
2023/04/16 02:11:15;;;;;;;;;;;;;;;20.15;56.00;96397.16;611535;230;63047;-59
2023/04/16 02:13:43;;;;;;;;;;;;;;;20.15;55.65;96397.16;611540;230;67984;-59
2023/04/16 02:16:11;;;;;;;;;;;;;;;20.15;56.84;96402.50;613303;230;67416;-59
2023/04/16 02:18:43;;;;;;;;;;;;;;;20.14;56.46;96400.92;613500;230;46876;-59
2023/04/16 02:21:11;;;;;;;;;;;;;;;20.15;57.33;96402.50;611589;230;67147;-59
2023/04/16 02:23:40;;;;;;;;;;;;;;;20.14;56.46;96403.59;615385;230;66768;-59
2023/04/16 02:26:07;;;;;;;;;;;;;;;20.14;56.15;96400.12;613123;230;66120;-59
2023/04/16 02:28:35;;;;;;;;;;;;;;;20.15;57.02;96402.50;616310;230;67839;-59
2023/04/16 02:31:03;;;;;;;;;;;;;;;20.13;55.66;96399.34;612932;230;66738;-59
2023/04/16 02:33:32;;;;;;;;;;;;;;;20.14;56.15;96400.12;613014;230;42084;-59
2023/04/16 02:36:01;;;;;;;;;;;;;;;20.14;56.05;96390.25;616263;230;66937;-59
2023/04/16 02:38:29;;;;;;;;;;;;;;;20.12;55.52;96392.39;614580;230;64691;-59
2023/04/16 02:40:56;;;;;;;;;;;;;;;20.13;55.21;96393.18;612010;230;62751;-59
2023/04/16 02:43:24;;;;;;;;;;;;;;;20.13;56.14;96388.67;611556;230;64856;-58
2023/04/16 02:45:51;;;;;;;;;;;;;;;20.12;55.79;96379.05;611617;230;67247;-59
2023/04/16 02:48:19;;;;;;;;;;;;;;;20.12;56.37;96386.27;611588;230;64905;-59
2023/04/16 02:50:47;;;;;;;;;;;;;;;20.12;55.44;96381.72;614383;230;67046;-59
2023/04/16 02:53:14;;;;;;;;;;;;;;;20.12;56.41;96379.05;612498;230;67631;-59
2023/04/16 02:55:44;;;;;;;;;;;;;;;20.12;55.47;96370.26;611698;230;63027;-59
2023/04/16 02:58:11;;;;;;;;;;;;;;;20.12;55.86;96372.93;612390;230;67127;-59
2023/04/16 03:00:39;;;;;;;;;;;;;;;20.12;55.98;96375.59;614179;230;64482;-59
2023/04/16 03:03:07;;;;;;;;;;;;;;;20.12;56.48;96376.39;612755;230;64924;-59
2023/04/16 03:05:34;;;;;;;;;;;;;;;20.12;55.60;96365.72;611519;230;67283;-59
2023/04/16 03:08:03;;;;;;;;;;;;;;;20.11;55.37;96366.80;611591;230;66890;-59
2023/04/16 03:10:31;;;;;;;;;;;;;;;20.12;56.11;96378.27;614242;230;65161;-59
2023/04/16 03:12:58;;;;;;;;;;;;;;;20.12;55.86;96372.93;616871;230;67313;-59
2023/04/16 03:15:26;;;;;;;;;;;;;;;20.11;56.14;96376.68;612367;230;67145;-58
2023/04/16 03:17:54;;;;;;;;;;;;;;;20.12;55.81;96386.27;615111;230;63837;-59
2023/04/16 03:20:21;;;;;;;;;;;;;;;20.11;55.40;96379.35;611589;230;65026;-59
2023/04/16 03:22:51;;;;;;;;;;;;;;;20.11;57.04;96385.48;611586;230;66876;-59
2023/04/16 03:25:18;;;;;;;;;;;;;;;20.10;54.49;96396.41;611614;230;64850;-59
2023/04/16 03:27:46;;;;;;;;;;;;;;;20.10;55.36;96399.08;611568;230;67245;-59
2023/04/16 03:30:14;;;;;;;;;;;;;;;20.09;55.44;96398.29;613351;230;64316;-59
2023/04/16 03:32:42;;;;;;;;;;;;;;;20.10;55.73;96391.87;613567;230;65146;-59
2023/04/16 03:35:11;;;;;;;;;;;;;;;20.09;55.28;96387.63;615203;230;64019;-59
2023/04/16 03:37:39;;;;;;;;;;;;;;;20.09;55.64;96398.29;611711;230;64889;-59
2023/04/16 03:40:07;;;;;;;;;;;;;;;20.09;55.12;96403.63;611976;230;65190;-59
2023/04/16 03:42:35;;;;;;;;;;;;;;;20.09;54.46;96400.95;612195;230;67205;-59
2023/04/16 03:45:02;;;;;;;;;;;;;;;20.10;55.34;96404.41;614888;230;67302;-59
2023/04/16 03:47:31;;;;;;;;;;;;;;;20.09;54.92;96403.63;612360;229;65130;-59
2023/04/16 03:50:00;;;;;;;;;;;;;;;20.09;55.13;96405.50;615296;230;66938;-59
2023/04/16 03:52:28;;;;;;;;;;;;;;;20.08;55.89;96407.38;612239;229;67420;-59
2023/04/16 03:54:56;;;;;;;;;;;;;;;20.08;55.86;96402.05;611614;230;62514;-59
2023/04/16 03:57:25;;;;;;;;;;;;;;;20.08;56.81;96403.89;611358;230;45697;-59
2023/04/16 03:59:55;;;;;;;;;;;;;;;20.08;56.05;96406.55;611593;230;43992;-59
2023/04/16 04:02:23;;;;;;;;;;;;;;;20.07;54.82;96405.77;613643;230;65617;-59
2023/04/16 04:04:50;;;;;;;;;;;;;;;20.08;56.18;96403.89;613372;230;66915;-59
2023/04/16 04:07:18;;;;;;;;;;;;;;;20.07;55.49;96405.77;611561;230;66736;-59
2023/04/16 04:09:47;;;;;;;;;;;;;;;20.07;55.58;96410.31;614471;230;64914;-59
2023/04/16 04:12:15;;;;;;;;;;;;;;;20.08;55.48;96411.89;613360;230;67375;-59
2023/04/16 04:14:43;;;;;;;;;;;;;;;20.06;56.44;96398.85;613567;230;65482;-59
2023/04/16 04:17:10;;;;;;;;;;;;;;;20.07;57.49;96400.44;615214;230;65154;-59
2023/04/16 04:19:38;;;;;;;;;;;;;;;20.06;56.24;96398.06;611903;230;66761;-59
2023/04/16 04:22:06;;;;;;;;;;;;;;;20.06;56.42;96398.06;612478;230;66434;-59
2023/04/16 04:24:36;;;;;;;;;;;;;;;20.06;57.17;96411.40;611557;230;42221;-59
2023/04/16 04:27:03;;;;;;;;;;;;;;;20.06;58.37;96414.86;611587;230;64544;-59
2023/04/16 04:29:31;;;;;;;;;;;;;;;20.06;56.71;96417.52;611555;230;65861;-59
2023/04/16 04:31:58;;;;;;;;;;;;;;;20.06;57.91;96411.40;611574;230;63898;-59
2023/04/16 04:34:26;;;;;;;;;;;;;;;20.05;56.02;96418.61;613717;230;64589;-59
2023/04/16 04:36:54;;;;;;;;;;;;;;;20.05;56.22;96420.45;610167;230;67726;-59
2023/04/16 04:39:22;;;;;;;;;;;;;;;20.05;57.01;96413.27;613188;230;62517;-58
2023/04/16 04:41:50;;;;;;;;;;;;;;;20.05;57.12;96421.28;615370;230;67326;-59
2023/04/16 04:44:18;;;;;;;;;;;;;;;20.05;56.18;96418.61;613446;230;66729;-59
2023/04/16 04:46:45;;;;;;;;;;;;;;;20.05;56.73;96415.12;613516;230;62666;-60
2023/04/16 04:49:13;;;;;;;;;;;;;;;20.05;55.87;96423.12;615251;230;64320;-59
2023/04/16 04:51:41;;;;;;;;;;;;;;;20.04;56.76;96422.33;612328;230;66868;-59
2023/04/16 04:54:08;;;;;;;;;;;;;;;20.04;57.53;96422.33;616288;230;65020;-59
2023/04/16 04:56:36;;;;;;;;;;;;;;;20.03;56.22;96423.42;613810;230;67008;-59
2023/04/16 04:59:03;;;;;;;;;;;;;;;20.03;55.84;96419.96;611601;230;66885;-59
2023/04/16 05:01:31;;;;;;;;;;;;;;;20.03;56.15;96420.75;611926;230;65799;-59
2023/04/16 05:03:58;;;;;;;;;;;;;;;20.03;54.80;96415.42;616707;230;66923;-59
2023/04/16 05:06:26;;;;;;;;;;;;;;;20.02;55.47;96413.80;614128;230;64621;-59
2023/04/16 05:08:53;;;;;;;;;;;;;;;20.03;54.25;96411.95;612379;230;62983;-59
2023/04/16 05:11:20;;;;;;;;;;;;;;;20.03;55.27;96417.30;611792;230;66905;-59
2023/04/16 05:13:48;;;;;;;;;;;;;;;20.02;54.79;96416.47;615852;230;66801;-59
2023/04/16 05:16:15;;;;;;;;;;;;;;;20.03;55.79;96409.30;613358;230;65350;-59
2023/04/16 05:18:43;;;;;;;;;;;;;;;20.01;55.30;96417.56;614223;230;64523;-59
2023/04/16 05:21:10;;;;;;;;;;;;;;;20.02;54.53;96411.14;615524;230;66792;-59
2023/04/16 05:23:38;;;;;;;;;;;;;;;20.02;55.27;96419.14;612725;230;64991;-59
2023/04/16 05:26:05;;;;;;;;;;;;;;;20.02;55.54;96419.14;611558;230;66967;-59
2023/04/16 05:28:33;;;;;;;;;;;;;;;20.01;55.04;96414.89;611556;230;66664;-59
2023/04/16 05:31:00;;;;;;;;;;;;;;;20.02;55.73;96413.02;611558;230;65129;-59
2023/04/16 05:33:28;;;;;;;;;;;;;;;20.02;56.02;96411.14;611698;230;64676;-59
2023/04/16 05:35:55;;;;;;;;;;;;;;;20.02;55.54;96407.68;615149;230;64403;-59
2023/04/16 05:38:23;;;;;;;;;;;;;;;20.01;55.89;96403.44;611553;230;63080;-59
2023/04/16 05:40:50;;;;;;;;;;;;;;;20.01;56.71;96406.10;611528;230;64720;-59
2023/04/16 05:43:17;;;;;;;;;;;;;;;20.01;56.59;96404.22;611535;230;64900;-59
2023/04/16 05:45:45;;;;;;;;;;;;;;;20.01;56.16;96406.89;606720;230;67589;-59
2023/04/16 05:48:14;;;;;;;;;;;;;;;20.01;55.82;96406.89;611994;229;46589;-59
2023/04/16 05:50:42;;;;;;;;;;;;;;;20.00;55.12;96399.98;608585;230;66772;-59
2023/04/16 05:53:09;;;;;;;;;;;;;;;20.00;55.81;96397.31;611543;230;65162;-59
2023/04/16 05:55:37;;;;;;;;;;;;;;;20.01;57.16;96406.89;611481;230;66818;-59
2023/04/16 05:58:04;;;;;;;;;;;;;;;20.00;56.17;96394.64;611608;230;66861;-59
2023/04/16 06:00:35;;;;;;;;;;;;;;;20.00;57.27;96391.16;613861;230;64884;-59
2023/04/16 06:03:02;;;;;;;;;;;;;;;20.00;55.19;96389.30;616625;229;66720;-61
2023/04/16 06:05:30;;;;;;;;;;;;;;;19.99;55.73;96385.03;612056;230;64750;-60
2023/04/16 06:07:57;;;;;;;;;;;;;;;19.99;55.73;96378.91;612859;230;62930;-60
2023/04/16 06:10:25;;;;;;;;;;;;;;;19.99;50.88;96373.57;616560;230;64485;-60
2023/04/16 06:12:52;;;;;;;;;;;;;;;19.99;52.03;96381.57;613290;230;64629;-60
2023/04/16 06:15:20;;;;;;;;;;;;;;;19.99;54.26;96387.70;611542;230;63006;-60
2023/04/16 06:17:49;;;;;;;;;;;;;;;19.99;53.74;96385.03;608788;231;64709;-60
2023/04/16 06:20:17;;;;;;;;;;;;;;;20.01;52.24;96384.77;611923;230;66811;-60
2023/04/16 06:22:45;;;;;;;;;;;;;;;20.02;51.13;96392.47;614264;230;65033;-60
2023/04/16 06:25:12;;;;;;;;;;;;;;;20.02;49.68;96387.13;616738;230;65322;-60
2023/04/16 06:27:40;;;;;;;;;;;;;;;20.03;53.14;96388.75;616127;230;66328;-60
2023/04/16 06:30:09;;;;;;;;;;;;;;;20.02;53.47;96387.13;611595;230;65095;-60
2023/04/16 06:32:36;;;;;;;;;;;;;;;20.03;53.07;96393.29;611480;230;64076;-60
2023/04/16 06:35:04;;;;;;;;;;;;;;;20.02;53.80;96400.47;611618;230;64337;-60
2023/04/16 06:37:31;;;;;;;;;;;;;;;20.03;53.81;96396.75;611621;230;65029;-60
2023/04/16 06:39:59;;;;;;;;;;;;;;;20.03;54.54;96388.75;612921;230;64232;-60
2023/04/16 06:42:26;;;;;;;;;;;;;;;20.02;54.17;96392.47;614566;230;66301;-58
2023/04/16 06:44:54;;;;;;;;;;;;;;;20.03;53.45;96385.28;614975;230;62914;-58
2023/04/16 06:47:21;;;;;;;;;;;;;;;20.04;54.36;96398.33;612516;230;66676;-58
2023/04/16 06:49:49;;;;;;;;;;;;;;;20.04;54.79;96394.87;609166;231;66428;-58
2023/04/16 06:52:16;;;;;;;;;;;;;;;20.03;54.42;96393.29;612378;230;65092;-58
2023/04/16 06:54:44;;;;;;;;;;;;;;;20.03;53.98;96387.95;611477;230;67012;-58
2023/04/16 06:57:11;;;;;;;;;;;;;;;20.03;54.44;96394.08;611538;230;67093;-58
2023/04/16 06:59:39;;;;;;;;;;;;;;;20.03;54.75;96396.75;612568;231;65027;-58
2023/04/16 07:02:08;;;;;;;;;;;;;;;20.03;53.89;96393.29;611570;230;66940;-58
2023/04/16 07:04:35;;;;;;;;;;;;;;;20.04;54.48;96395.66;613987;230;64714;-58
2023/04/16 07:07:03;;;;;;;;;;;;;;;20.04;54.63;96389.53;613000;230;65050;-58
2023/04/16 07:09:30;;;;;;;;;;;;;;;20.04;54.12;96394.87;611506;230;66755;-57
2023/04/16 07:11:58;;;;;;;;;;;;;;;20.03;53.71;96396.75;611603;230;66846;-58
2023/04/16 07:14:25;;;;;;;;;;;;;;;20.04;54.20;96397.54;613842;230;65046;-58
2023/04/16 07:16:53;;;;;;;;;;;;;;;20.03;54.70;96399.41;616902;230;64401;-58
2023/04/16 07:19:21;;;;;;;;;;;;;;;20.04;54.04;96403.66;612556;230;66830;-58
2023/04/16 07:21:48;;;;;;;;;;;;;;;20.04;54.05;96403.66;616260;230;60985;-58
2023/04/16 07:24:17;;;;;;;;;;;;;;;20.04;54.33;96400.99;613873;230;67148;-58
2023/04/16 07:26:46;;;;;;;;;;;;;;;20.05;54.65;96396.45;613377;230;47784;-59
2023/04/16 07:29:14;;;;;;;;;;;;;;;20.03;54.14;96399.41;611662;230;65052;-58
2023/04/16 07:31:41;;;;;;;;;;;;;;;20.04;54.39;96395.66;611542;230;64683;-58
2023/04/16 07:34:09;;;;;;;;;;;;;;;20.04;54.29;96400.99;611571;230;66640;-59
2023/04/16 07:36:36;;;;;;;;;;;;;;;20.04;54.61;96395.66;613871;230;66560;-58
2023/04/16 07:39:07;;;;;;;;;;;;;;;20.04;53.57;96394.87;613044;230;67350;-58
2023/04/16 07:41:35;;;;;;;;;;;;;;;20.05;52.55;96397.27;611548;230;67181;-59
2023/04/16 07:44:03;;;;;;;;;;;;;;;20.05;54.56;96402.61;611615;230;63047;-59
2023/04/16 07:46:30;;;;;;;;;;;;;;;20.05;53.99;96399.94;611512;230;67268;-59
2023/04/16 07:48:58;;;;;;;;;;;;;;;20.05;54.37;96405.27;611498;230;67040;-59
2023/04/16 07:51:26;;;;;;;;;;;;;;;20.06;49.53;96398.85;611520;230;65058;-58
2023/04/16 07:53:53;;;;;;;;;;;;;;;20.08;54.06;96395.89;611769;230;65040;-60
2023/04/16 07:56:21;;;;;;;;;;;;;;;20.06;53.21;96393.52;612367;230;64938;-59
2023/04/16 07:58:48;;;;;;;;;;;;;;;20.06;54.34;96392.73;611516;230;62912;-59
2023/04/16 08:01:16;;;;;;;;;;;;;;;20.05;51.26;96391.94;611504;231;67206;-59
2023/04/16 08:03:43;;;;;;;;;;;;;;;20.07;54.79;96403.10;612045;230;64449;-59
2023/04/16 08:06:11;;;;;;;;;;;;;;;20.06;54.19;96406.86;614745;230;62872;-59
2023/04/16 08:08:38;;;;;;;;;;;;;;;20.06;54.65;96404.19;611552;230;65097;-59
2023/04/16 08:11:06;;;;;;;;;;;;;;;20.06;54.76;96406.06;611516;230;65245;-59
2023/04/16 08:13:35;;;;;;;;;;;;;;;20.05;53.99;96413.27;611341;230;65054;-58
2023/04/16 08:16:02;;;;;;;;;;;;;;;20.05;54.20;96407.94;612455;230;68430;-59
2023/04/16 08:18:30;;;;;;;;;;;;;;;20.04;54.12;96400.20;611531;230;67050;-59
2023/04/16 08:20:57;;;;;;;;;;;;;;;20.04;54.64;96395.66;614524;230;65128;-59
2023/04/16 08:23:25;;;;;;;;;;;;;;;20.04;55.02;96398.33;616200;230;67219;-58
2023/04/16 08:25:52;;;;;;;;;;;;;;;20.05;54.06;96399.94;611532;230;66849;-59
2023/04/16 08:28:20;;;;;;;;;;;;;;;20.05;52.96;96397.27;613350;230;65103;-59
2023/04/16 08:30:47;;;;;;;;;;;;;;;20.04;54.71;96392.99;613607;230;66795;-59
2023/04/16 08:33:15;;;;;;;;;;;;;;;20.05;55.24;96391.11;611629;230;67078;-59
2023/04/16 08:35:42;;;;;;;;;;;;;;;20.05;54.60;96380.45;611614;230;65273;-58
2023/04/16 08:38:10;;;;;;;;;;;;;;;20.05;55.12;96383.11;612506;230;67546;-58
2023/04/16 08:40:38;;;;;;;;;;;;;;;20.05;55.21;96375.94;611614;230;67023;-59
2023/04/16 08:43:07;;;;;;;;;;;;;;;20.04;54.85;96378.87;611555;230;65058;-59
2023/04/16 08:45:36;;;;;;;;;;;;;;;20.04;53.13;96384.99;616160;230;64907;-59
2023/04/16 08:48:04;;;;;;;;;;;;;;;20.06;54.94;96382.84;615072;230;67084;-59
2023/04/16 08:50:33;;;;;;;;;;;;;;;20.04;55.56;96379.66;611583;230;65070;-59
2023/04/16 08:53:08;;;;;;;;;;;;;;;20.05;54.52;96375.94;611590;230;65137;-59
2023/04/16 08:55:48;;;;;;;;;;;;;;;20.04;54.83;96374.33;615424;230;65920;-59
2023/04/16 08:58:17;;;;;;;;;;;;;;;20.04;55.01;96374.33;613986;230;64949;-60
2023/04/16 09:00:45;;;;;;;;;;;;;;;20.05;55.49;96375.11;616283;230;67649;-60
2023/04/16 09:03:13;;;;;;;;;;;;;;;20.04;54.64;96370.86;616292;230;67017;-60
2023/04/16 09:05:41;;;;;;;;;;;;;;;20.05;51.21;96370.59;611812;230;63011;-60
2023/04/16 09:08:09;;;;;;;;;;;;;;;20.06;49.86;96366.84;611934;230;64885;-60
2023/04/16 09:10:36;;;;;;;;;;;;;;;20.09;49.82;96365.48;614460;230;67039;-60
2023/04/16 09:13:04;;;;;;;;;;;;;;;20.09;49.35;96363.61;613154;230;62891;-60
2023/04/16 09:15:31;;;;;;;;;;;;;;;20.09;54.66;96357.48;611518;230;64999;-59
2023/04/16 09:17:59;;;;;;;;;;;;;;;20.08;55.44;96347.88;612634;227;64787;-60
2023/04/16 09:20:27;;;;;;;;;;;;;;;20.05;54.43;96343.92;614762;230;65125;-60
2023/04/16 09:22:55;;;;;;;;;;;;;;;20.06;53.92;96345.50;612095;230;67262;-60
2023/04/16 09:25:25;;;;;;;;;;;;;;;20.05;54.03;96337.77;611536;230;67408;-60
2023/04/16 09:27:52;;;;;;;;;;;;;;;20.06;54.35;96347.38;614431;230;62333;-60
2023/04/16 09:30:21;;;;;;;;;;;;;;;20.05;54.92;96343.92;611579;230;67155;-60
2023/04/16 09:32:49;;;;;;;;;;;;;;;20.05;55.39;96340.44;611568;230;65062;-60
2023/04/16 09:35:18;;;;;;;;;;;;;;;20.04;54.69;96338.86;615064;227;65208;-60
2023/04/16 09:37:47;;;;;;;;;;;;;;;20.05;52.05;96337.77;616694;228;65110;-59
2023/04/16 09:40:16;;;;;;;;;;;;;;;20.05;55.67;96330.59;614410;230;64912;-59
2023/04/16 09:42:43;;;;;;;;;;;;;;;20.06;55.23;96339.38;611960;230;63906;-59
2023/04/16 09:45:11;;;;;;;;;;;;;;;20.04;55.12;96336.98;615724;230;66917;-59
2023/04/16 09:47:43;;;;;;;;;;;;;;;20.04;55.30;96334.31;612381;230;67040;-59
2023/04/16 09:50:12;;;;;;;;;;;;;;;20.03;54.41;96329.28;615150;230;65201;-59
2023/04/16 09:52:39;;;;;;;;;;;;;;;20.03;55.06;96332.73;612190;230;65571;-58
2023/04/16 09:55:07;;;;;;;;;;;;;;;20.03;55.42;96329.28;611587;230;64836;-58
2023/04/16 09:57:36;;;;;;;;;;;;;;;20.02;55.95;96331.12;611743;230;65032;-58
2023/04/16 10:00:06;;;;;;;;;;;;;;;20.03;55.50;96330.06;615065;230;67174;-59
2023/04/16 10:02:34;;;;;;;;;;;;;;;20.03;55.50;96326.61;606045;232;65053;-59
2023/04/16 10:05:02;;;;;;;;;;;;;;;20.02;51.21;96328.45;613187;230;64951;-59
2023/04/16 10:07:31;;;;;;;;;;;;;;;20.06;52.05;96321.50;615998;229;67143;-58
2023/04/16 10:09:58;;;;;;;;;;;;;;;20.05;55.30;96330.59;612615;230;63285;-59
2023/04/16 10:12:29;;;;;;;;;;;;;;;20.04;54.45;96320.19;614794;230;65112;-59
2023/04/16 10:14:56;;;;;;;;;;;;;;;20.04;55.02;96310.31;614951;230;67238;-59
2023/04/16 10:17:24;;;;;;;;;;;;;;;20.03;55.14;96318.61;612561;230;67021;-59
2023/04/16 10:19:53;;;;;;;;;;;;;;;20.02;54.74;96312.45;612484;230;63015;-59
2023/04/16 10:22:21;;;;;;;;;;;;;;;20.03;55.16;96314.06;614972;230;67240;-59
2023/04/16 10:24:49;;;;;;;;;;;;;;;20.02;55.04;96304.45;611629;230;67044;-59
2023/04/16 10:27:17;;;;;;;;;;;;;;;20.02;55.10;96306.33;611569;230;64898;-59
2023/04/16 10:29:44;;;;;;;;;;;;;;;20.01;54.30;96302.88;615408;230;67203;-58
2023/04/16 10:32:12;;;;;;;;;;;;;;;20.01;55.56;96297.54;611650;230;66608;-59
2023/04/16 10:34:40;;;;;;;;;;;;;;;20.02;55.34;96299.12;612267;230;65039;-59
2023/04/16 10:37:08;;;;;;;;;;;;;;;20.02;55.26;96298.33;612044;230;66906;-59
2023/04/16 10:39:38;;;;;;;;;;;;;;;20.03;50.62;96298.06;611734;230;67069;-59
2023/04/16 10:42:13;;;;;;;;;;;;;;;20.06;49.80;96300.16;615541;230;65063;-58
2023/04/16 10:44:41;;;;;;;;;;;;;;;20.06;52.86;96302.04;611632;230;66935;-58
2023/04/16 10:47:12;;;;;;;;;;;;;;;20.04;54.65;96299.64;614893;230;66932;-58
2023/04/16 10:49:40;;;;;;;;;;;;;;;20.02;55.35;96301.78;616763;230;65004;-58
2023/04/16 10:52:09;;;;;;;;;;;;;;;20.02;56.10;96293.78;614961;230;64721;-58
2023/04/16 10:54:37;;;;;;;;;;;;;;;20.02;54.98;96295.66;613879;230;64821;-58
2023/04/16 10:57:09;;;;;;;;;;;;;;;20.02;52.72;96299.12;613137;230;65048;-58
2023/04/16 10:59:38;;;;;;;;;;;;;;;20.03;52.91;96300.73;615957;230;66990;-58
2023/04/16 11:02:08;;;;;;;;;;;;;;;20.03;55.10;96298.06;612846;230;64953;-58
2023/04/16 11:04:36;;;;;;;;;;;;;;;20.03;52.31;96300.73;614091;230;65136;-58
2023/04/16 11:07:05;;;;;;;;;;;;;;;20.05;52.62;96300.43;611551;230;64831;-58
2023/04/16 11:09:53;;;;;;;;;;;;;;;20.03;55.04;96290.06;611689;230;67116;-58
2023/04/16 11:12:22;;;;;;;;;;;;;;;20.02;55.54;96291.12;616291;230;65032;-58
2023/04/16 11:14:51;;;;;;;;;;;;;;;20.02;54.84;96287.66;616288;230;67250;-58
2023/04/16 11:17:19;;;;;;;;;;;;;;;20.01;56.02;96292.20;616293;230;64923;-58
2023/04/16 11:19:48;;;;;;;;;;;;;;;20.01;56.30;96300.20;616257;230;63137;-58
2023/04/16 11:22:17;;;;;;;;;;;;;;;20.00;55.92;96287.95;615185;230;64956;-58
2023/04/16 11:24:45;;;;;;;;;;;;;;;20.01;55.54;96291.41;611567;230;66873;-58
2023/04/16 11:27:16;;;;;;;;;;;;;;;20.00;54.42;96285.30;614928;230;62982;-58
2023/04/16 11:29:43;;;;;;;;;;;;;;;20.01;54.04;96289.53;612351;230;65098;-58
2023/04/16 11:32:12;;;;;;;;;;;;;;;20.02;55.54;96284.99;616290;230;64867;-58
2023/04/16 11:34:44;;;;;;;;;;;;;;;20.00;55.54;96279.14;613599;230;62925;-58
2023/04/16 11:37:12;;;;;;;;;;;;;;;20.01;54.13;96281.53;612432;230;67166;-58
2023/04/16 11:39:44;;;;;;;;;;;;;;;20.02;50.79;96271.66;615575;227;65031;-58
2023/04/16 11:42:13;;;;;;;;;;;;;;;20.03;50.15;96270.60;610505;230;65035;-59
2023/04/16 11:44:42;;;;;;;;;;;;;;;20.04;55.42;96272.97;611469;230;67132;-59
2023/04/16 11:47:12;;;;;;;;;;;;;;;20.02;55.12;96267.11;614867;230;67553;-59
2023/04/16 11:49:39;;;;;;;;;;;;;;;20.01;55.27;96267.41;616175;229;69584;-59
2023/04/16 11:52:06;;;;;;;;;;;;;;;20.02;53.11;96264.45;616429;230;67237;-59
2023/04/16 11:54:35;;;;;;;;;;;;;;;20.03;51.25;96265.27;614461;230;67322;-61
2023/04/16 11:57:03;;;;;;;;;;;;;;;20.03;55.69;96263.39;614631;230;65091;-59
2023/04/16 11:59:32;;;;;;;;;;;;;;;20.02;55.02;96268.99;613364;230;67215;-59
2023/04/16 12:01:59;;;;;;;;;;;;;;;20.01;56.51;96265.53;615275;230;64856;-59
2023/04/16 12:04:28;;;;;;;;;;;;;;;20.01;54.57;96281.53;611611;230;63023;-59
2023/04/16 12:07:09;;;;;;;;;;;;;;;20.01;55.81;96281.53;611533;230;67392;-59
2023/04/16 12:09:37;;;;;;;;;;;;;;;20.02;53.33;96291.12;615600;230;64830;-59
2023/04/16 12:12:05;;;;;;;;;;;;;;;20.02;52.50;96292.99;616384;230;65077;-59
2023/04/16 12:14:32;;;;;;;;;;;;;;;20.03;52.20;96292.73;614194;230;66990;-59
2023/04/16 12:17:02;;;;;;;;;;;;;;;20.03;51.63;96298.06;614543;230;64975;-59
2023/04/16 12:19:29;;;;;;;;;;;;;;;20.04;51.15;96304.97;611625;230;62921;-59
2023/04/16 12:21:58;;;;;;;;;;;;;;;20.03;53.28;96303.39;616726;230;67298;-59
2023/04/16 12:24:26;;;;;;;;;;;;;;;20.02;54.75;96299.12;614468;229;67857;-59
2023/04/16 12:27:01;;;;;;;;;;;;;;;20.02;54.62;96299.12;614288;230;65105;-59
2023/04/16 12:29:30;;;;;;;;;;;;;;;20.01;54.84;96300.20;616245;230;67260;-58
2023/04/16 12:31:58;;;;;;;;;;;;;;;20.00;54.79;96303.96;611574;230;64922;-58
2023/04/16 12:34:26;;;;;;;;;;;;;;;20.01;51.68;96302.08;611568;230;63026;-59
2023/04/16 12:37:13;;;;;;;;;;;;;;;20.01;54.92;96308.20;611642;230;67269;-59
2023/04/16 12:39:36;;;;;;;;;;;;;;;20.00;55.31;96309.30;611547;230;69816;-58
2023/04/16 12:42:08;;;;;;;;;;;;;;;20.00;54.36;96308.47;615108;230;65130;-58
2023/04/16 12:44:35;;;;;;;;;;;;;;;19.99;55.38;96299.69;611965;230;64918;-59
2023/04/16 12:47:04;;;;;;;;;;;;;;;20.00;55.53;96303.14;612028;230;67054;-60
2023/04/16 12:49:31;;;;;;;;;;;;;;;19.98;55.72;96298.11;611579;230;62904;-58
2023/04/16 12:52:01;;;;;;;;;;;;;;;19.98;55.35;96303.44;615834;229;46803;-59